createdAt,value
2022-12-27T00:00:43.923Z,27.55
2022-12-27T00:02:45.654Z,30.10
2022-12-27T00:04:47.374Z,29.08
2022-12-27T00:06:48.882Z,31.05
2022-12-27T00:08:51.271Z,29.98
2022-12-27T00:10:52.821Z,32.85
2022-12-27T00:12:54.398Z,32.25
2022-12-27T00:14:55.874Z,32.13
2022-12-27T00:16:57.394Z,30.27
2022-12-27T00:18:59.841Z,33.22
2022-12-27T00:21:02.894Z,32.85
2022-12-27T00:23:04.409Z,39.50
2022-12-27T00:25:06.344Z,36.67
2022-12-27T00:27:08.018Z,33.88
2022-12-27T00:29:10.518Z,39.80
2022-12-27T00:31:12.915Z,37.15
2022-12-27T00:33:14.429Z,39.33
2022-12-27T00:35:16.049Z,40.55
2022-12-27T00:37:17.540Z,42.13
2022-12-27T00:39:19.089Z,49.65
2022-12-27T00:41:21.046Z,52.28
2022-12-27T00:43:22.628Z,49.45
2022-12-27T00:45:24.184Z,50.33
2022-12-27T00:47:25.812Z,52.85
2022-12-27T00:49:27.367Z,47.03
2022-12-27T00:51:29.018Z,52.25
2022-12-27T00:53:31.209Z,39.05
2022-12-27T00:55:32.904Z,30.63
2022-12-27T00:57:34.378Z,29.70
2022-12-27T00:59:35.865Z,26.90
2022-12-27T01:01:38.481Z,21.40
2022-12-27T01:03:40.556Z,23.10
2022-12-27T01:05:42.165Z,17.25
2022-12-27T01:07:43.819Z,12.23
2022-12-27T01:09:45.342Z,10.52
2022-12-27T01:11:46.882Z,13.77
2022-12-27T01:13:49.132Z,9.45
2022-12-27T01:15:50.856Z,9.02
2022-12-27T01:17:52.405Z,9.20
2022-12-27T01:19:54.144Z,11.40
2022-12-27T01:21:55.679Z,8.48
2022-12-27T01:23:58.113Z,10.65
2022-12-27T01:26:06.216Z,11.50
2022-12-27T01:28:07.744Z,17.63
2022-12-27T01:30:09.851Z,11.18
2022-12-27T01:32:11.420Z,11.35
2022-12-27T01:34:12.972Z,15.13
2022-12-27T01:36:20.118Z,10.00
2022-12-27T01:38:21.664Z,13.07
2022-12-27T01:40:23.374Z,12.85
2022-12-27T01:42:43.630Z,14.30
2022-12-27T01:44:51.184Z,16.42
2022-12-27T01:46:52.734Z,17.67
2022-12-27T01:48:54.776Z,14.13
2022-12-27T01:51:04.181Z,25.02
2022-12-27T01:53:19.855Z,13.30
2022-12-27T01:55:28.929Z,15.52
2022-12-27T01:57:30.681Z,12.52
2022-12-27T01:59:33.809Z,11.23
2022-12-27T02:01:40.263Z,12.90
2022-12-27T02:03:48.497Z,13.50
2022-12-27T02:05:50.847Z,18.23
2022-12-27T02:08:30.768Z,13.18
2022-12-27T02:10:32.861Z,14.90
2022-12-27T02:12:34.389Z,12.45
2022-12-27T02:14:47.947Z,12.75
2022-12-27T02:16:49.984Z,13.50
2022-12-27T02:18:51.610Z,15.30
2022-12-27T02:21:10.469Z,11.63
2022-12-27T02:23:52.103Z,16.00
2022-12-27T02:26:15.222Z,13.85
2022-12-27T02:28:54.317Z,13.80
2022-12-27T02:31:04.943Z,9.38
2022-12-27T02:33:20.069Z,13.20
2022-12-27T02:35:37.764Z,10.38
2022-12-27T02:38:00.321Z,11.55
2022-12-27T02:40:23.205Z,9.27
2022-12-27T02:42:43.215Z,9.88
2022-12-27T02:45:05.306Z,2.47
2022-12-27T02:47:44.796Z,0.00
2022-12-27T02:50:04.804Z,6.10
2022-12-27T02:52:50.003Z,0.52
2022-12-27T02:55:29.459Z,0.00
2022-12-27T02:58:04.942Z,0.00
2022-12-27T03:00:32.310Z,0.00
2022-12-27T03:03:18.770Z,0.00
2022-12-27T03:05:31.458Z,0.35
2022-12-27T03:07:47.165Z,0.00
2022-12-27T03:10:20.470Z,0.00
2022-12-27T03:13:29.189Z,0.00
2022-12-27T03:15:57.911Z,0.00
2022-12-27T03:18:14.966Z,0.00
2022-12-27T03:20:37.190Z,0.00
2022-12-27T03:23:00.040Z,0.00
2022-12-27T03:25:21.335Z,0.00
2022-12-27T03:27:36.094Z,0.00
2022-12-27T03:29:56.526Z,0.00
2022-12-27T03:32:22.343Z,0.00
2022-12-27T03:34:33.246Z,0.10
2022-12-27T03:36:54.095Z,0.52
2022-12-27T03:39:05.403Z,0.00
2022-12-27T03:41:27.223Z,6.72
2022-12-27T03:43:29.666Z,0.00
2022-12-27T03:45:58.048Z,0.30
2022-12-27T03:48:04.923Z,0.00
2022-12-27T03:50:16.079Z,0.52
2022-12-27T03:52:25.320Z,0.00
2022-12-27T03:54:31.899Z,0.00
2022-12-27T03:56:33.761Z,0.00
2022-12-27T03:58:35.508Z,0.00
2022-12-27T04:00:37.135Z,0.00
2022-12-27T04:02:38.851Z,0.10
2022-12-27T04:04:40.783Z,0.00
2022-12-27T04:06:42.315Z,0.17
2022-12-27T04:09:02.306Z,0.00
2022-12-27T04:11:22.728Z,0.00
2022-12-27T04:13:42.894Z,0.00
2022-12-27T04:16:02.901Z,0.00
2022-12-27T04:18:23.196Z,0.08
2022-12-27T04:20:44.179Z,0.00
2022-12-27T04:23:04.144Z,0.50
2022-12-27T04:25:24.543Z,0.10
2022-12-27T04:27:44.610Z,0.00
2022-12-27T04:30:04.805Z,0.00
2022-12-27T04:32:24.992Z,0.00
2022-12-27T04:34:44.855Z,0.00
2022-12-27T04:36:46.541Z,0.00
2022-12-27T04:38:48.084Z,0.10
2022-12-27T04:41:08.231Z,35.30
2022-12-27T04:43:42.402Z,0.00
2022-12-27T04:46:02.658Z,0.47
2022-12-27T04:48:23.325Z,0.20
2022-12-27T04:50:51.226Z,0.00
2022-12-27T04:53:11.592Z,0.10
2022-12-27T04:55:28.170Z,0.15
2022-12-27T04:57:29.758Z,0.10
2022-12-27T04:59:50.146Z,0.00
2022-12-27T05:02:04.091Z,0.00
2022-12-27T05:04:05.800Z,0.00
2022-12-27T05:06:07.820Z,0.00
2022-12-27T05:08:28.839Z,0.00
2022-12-27T05:10:48.802Z,0.00
2022-12-27T05:13:08.903Z,0.20
2022-12-27T05:15:10.393Z,0.00
2022-12-27T05:17:11.987Z,0.00
2022-12-27T05:19:14.732Z,0.00
2022-12-27T05:21:16.288Z,0.00
2022-12-27T05:23:36.806Z,0.00
2022-12-27T05:25:42.879Z,0.00
2022-12-27T05:27:44.412Z,0.10
2022-12-27T05:29:46.321Z,0.00
2022-12-27T05:31:47.849Z,0.00
2022-12-27T05:33:50.311Z,0.00
2022-12-27T05:35:51.858Z,0.00
2022-12-27T05:37:55.307Z,0.00
2022-12-27T05:39:56.884Z,0.00
2022-12-27T05:41:58.495Z,0.00
2022-12-27T05:44:06.526Z,0.30
2022-12-27T05:46:15.555Z,1.13
2022-12-27T05:48:17.113Z,1.23
2022-12-27T05:50:18.756Z,0.80
2022-12-27T05:52:20.271Z,1.40
2022-12-27T05:54:21.831Z,0.75
2022-12-27T05:56:23.481Z,0.65
2022-12-27T05:58:25.671Z,0.17
2022-12-27T06:00:27.330Z,0.47
2022-12-27T06:02:28.988Z,0.20
2022-12-27T06:04:30.653Z,3.95
2022-12-27T06:06:34.277Z,2.15
2022-12-27T06:08:37.085Z,0.85
2022-12-27T06:10:38.593Z,3.13
2022-12-27T06:12:40.121Z,1.05
2022-12-27T06:14:41.623Z,6.15
2022-12-27T06:16:43.175Z,7.28
2022-12-27T06:18:45.798Z,1.83
2022-12-27T06:20:47.300Z,0.30
2022-12-27T06:22:48.882Z,0.20
2022-12-27T06:24:50.418Z,0.68
2022-12-27T06:26:51.987Z,3.42
2022-12-27T06:28:55.550Z,3.72
2022-12-27T06:30:59.488Z,4.25
2022-12-27T06:33:01.016Z,3.38
2022-12-27T06:35:02.976Z,3.40
2022-12-27T06:37:04.570Z,9.32
2022-12-27T06:39:06.156Z,2.45
2022-12-27T06:41:10.883Z,6.22
2022-12-27T06:43:12.557Z,1.92
2022-12-27T06:45:14.351Z,1.45
2022-12-27T06:47:15.913Z,0.15
2022-12-27T06:49:17.510Z,0.75
2022-12-27T06:51:20.972Z,0.20
2022-12-27T06:53:22.540Z,1.65
2022-12-27T06:55:24.326Z,0.52
2022-12-27T06:57:25.895Z,0.30
2022-12-27T06:59:27.409Z,1.23
2022-12-27T07:01:29.163Z,1.55
2022-12-27T07:03:30.785Z,13.32
2022-12-27T07:05:34.641Z,3.90
2022-12-27T07:07:36.197Z,2.17
2022-12-27T07:09:37.697Z,2.80
2022-12-27T07:11:39.247Z,5.03
2022-12-27T07:13:43.523Z,3.13
2022-12-27T07:15:45.051Z,4.53
2022-12-27T07:17:46.557Z,11.55
2022-12-27T07:19:48.320Z,0.98
2022-12-27T07:21:50.189Z,0.85
2022-12-27T07:23:52.079Z,0.10
2022-12-27T07:25:53.646Z,0.20
2022-12-27T07:27:55.419Z,1.05
2022-12-27T07:29:56.940Z,1.02
2022-12-27T07:31:58.475Z,0.17
2022-12-27T07:34:02.641Z,0.40
2022-12-27T07:36:06.884Z,0.20
2022-12-27T07:38:08.454Z,0.68
2022-12-27T07:40:10.174Z,2.08
2022-12-27T07:42:11.794Z,0.10
2022-12-27T07:44:13.374Z,0.77
2022-12-27T07:46:18.414Z,3.50
2022-12-27T07:48:19.992Z,0.00
2022-12-27T07:50:21.572Z,0.30
2022-12-27T07:52:23.138Z,2.95
2022-12-27T07:54:24.670Z,1.48
2022-12-27T07:56:28.291Z,2.10
2022-12-27T07:58:29.789Z,0.98
2022-12-27T08:00:31.325Z,8.00
2022-12-27T08:02:32.863Z,10.88
2022-12-27T08:04:37.321Z,0.77
2022-12-27T08:06:38.904Z,0.47
2022-12-27T08:08:43.355Z,0.50
2022-12-27T08:10:45.092Z,2.72
2022-12-27T08:12:46.642Z,0.77
2022-12-27T08:14:48.190Z,2.65
2022-12-27T08:16:49.853Z,2.65
2022-12-27T08:18:53.145Z,0.93
2022-12-27T08:20:54.880Z,2.47
2022-12-27T08:22:56.417Z,10.52
2022-12-27T08:24:57.940Z,12.85
2022-12-27T08:26:59.537Z,0.17
2022-12-27T08:29:01.042Z,0.10
2022-12-27T08:31:06.416Z,0.38
2022-12-27T08:33:08.179Z,0.10
2022-12-27T08:35:41.872Z,0.00
2022-12-27T08:37:31.318Z,0.10
2022-12-27T08:39:32.830Z,0.00
2022-12-27T08:41:34.336Z,1.55
2022-12-27T08:43:35.901Z,0.00
2022-12-27T08:45:39.515Z,0.03
2022-12-27T08:47:41.014Z,0.10
2022-12-27T08:49:42.619Z,0.40
2022-12-27T08:51:44.158Z,0.00
2022-12-27T08:53:45.671Z,0.03
2022-12-27T08:55:47.209Z,0.10
2022-12-27T08:57:48.786Z,0.00
2022-12-27T08:59:50.425Z,0.15
2022-12-27T09:01:52.061Z,0.00
2022-12-27T09:03:53.783Z,0.10
2022-12-27T09:05:55.298Z,11.95
2022-12-27T09:07:58.476Z,0.50
2022-12-27T09:10:00.006Z,0.10
2022-12-27T09:12:04.267Z,0.10
2022-12-27T09:14:10.563Z,0.30
2022-12-27T09:16:14.712Z,8.30
2022-12-27T09:18:16.361Z,1.75
2022-12-27T09:20:18.007Z,1.60
2022-12-27T09:22:19.497Z,3.33
2022-12-27T09:24:21.127Z,0.15
2022-12-27T09:26:26.244Z,0.20
2022-12-27T09:28:27.767Z,2.55
2022-12-27T09:30:29.959Z,0.20
2022-12-27T09:32:31.802Z,0.70
2022-12-27T09:34:33.408Z,15.98
2022-12-27T09:36:38.844Z,19.88
2022-12-27T09:38:41.589Z,1.08
2022-12-27T09:40:58.041Z,12.05
2022-12-27T09:43:20.625Z,0.35
2022-12-27T09:45:42.499Z,1.10
2022-12-27T09:47:56.065Z,6.22
2022-12-27T09:50:06.377Z,1.17
2022-12-27T09:52:16.956Z,0.20
2022-12-27T09:54:25.619Z,0.40
2022-12-27T09:56:47.388Z,1.27
2022-12-27T09:59:03.025Z,0.80
2022-12-27T10:01:25.934Z,0.65
2022-12-27T10:03:29.964Z,0.40
2022-12-27T10:05:34.928Z,1.77
2022-12-27T10:08:20.389Z,0.52
2022-12-27T10:10:24.745Z,0.43
2022-12-27T10:12:47.421Z,0.20
2022-12-27T10:14:57.082Z,15.95
2022-12-27T10:17:21.248Z,1.85
2022-12-27T10:19:43.632Z,1.45
2022-12-27T10:22:23.535Z,4.68
2022-12-27T10:24:35.140Z,2.47
2022-12-27T10:26:38.727Z,0.25
2022-12-27T10:28:43.714Z,0.20
2022-12-27T10:30:45.598Z,1.10
2022-12-27T10:32:48.715Z,0.52
2022-12-27T10:34:58.244Z,1.92
2022-12-27T10:36:59.778Z,0.40
2022-12-27T10:39:05.901Z,0.20
2022-12-27T10:41:24.901Z,1.00
2022-12-27T10:43:38.695Z,0.10
2022-12-27T10:45:42.399Z,0.40
2022-12-27T10:47:43.972Z,0.00
2022-12-27T10:50:04.006Z,0.95
2022-12-27T10:52:15.755Z,3.90
2022-12-27T10:54:29.441Z,0.03
2022-12-27T10:56:41.491Z,1.88
2022-12-27T10:58:58.243Z,0.95
2022-12-27T11:01:00.563Z,0.98
2022-12-27T11:03:03.239Z,1.52
2022-12-27T11:05:05.057Z,1.77
2022-12-27T11:07:18.737Z,4.07
2022-12-27T11:09:26.867Z,0.50
2022-12-27T11:11:28.399Z,0.55
2022-12-27T11:13:29.933Z,0.50
2022-12-27T11:15:34.865Z,2.42
2022-12-27T11:17:44.340Z,0.10
2022-12-27T11:19:47.466Z,0.77
2022-12-27T11:21:49.657Z,0.10
2022-12-27T11:23:55.318Z,0.63
2022-12-27T11:25:59.991Z,0.00
2022-12-27T11:28:39.250Z,0.10
2022-12-27T11:30:41.799Z,0.57
2022-12-27T11:32:45.384Z,7.03
2022-12-27T11:34:49.056Z,1.23
2022-12-27T11:36:54.886Z,0.10
2022-12-27T11:38:57.431Z,0.10
2022-12-27T11:41:17.234Z,0.10
2022-12-27T11:45:38.951Z,0.15
2022-12-27T11:47:49.678Z,0.17
2022-12-27T11:49:57.871Z,0.13
2022-12-27T11:52:23.834Z,1.40
2022-12-27T11:54:59.337Z,0.30
2022-12-27T11:57:39.721Z,0.13
2022-12-27T12:00:13.460Z,0.10
2022-12-27T12:02:17.783Z,0.25
2022-12-27T12:05:06.907Z,0.13
2022-12-27T12:07:31.544Z,0.10
2022-12-27T12:10:01.744Z,0.00
2022-12-27T12:12:17.009Z,0.00
2022-12-27T12:14:54.738Z,0.00
2022-12-27T12:17:14.427Z,0.10
2022-12-27T12:19:53.928Z,0.00
2022-12-27T12:22:07.770Z,0.05
2022-12-27T12:24:26.065Z,0.20
2022-12-27T12:26:37.478Z,0.00
2022-12-27T12:28:57.630Z,0.00
2022-12-27T12:31:19.997Z,0.80
2022-12-27T12:34:14.750Z,1.10
2022-12-27T12:36:34.388Z,0.00
2022-12-27T12:38:38.912Z,2.00
2022-12-27T12:41:05.824Z,0.40
2022-12-27T12:43:38.607Z,0.10
2022-12-27T12:46:04.363Z,0.47
2022-12-27T12:48:19.896Z,0.82
2022-12-27T12:50:33.549Z,0.57
2022-12-27T12:53:05.365Z,0.10
2022-12-27T12:55:38.665Z,10.52
2022-12-27T12:57:53.742Z,0.75
2022-12-27T13:00:25.190Z,0.77
2022-12-27T13:02:58.703Z,1.77
2022-12-27T13:05:05.077Z,1.40
2022-12-27T13:07:25.170Z,0.82
2022-12-27T13:09:52.957Z,0.43
2022-12-27T13:12:52.261Z,0.10
2022-12-27T13:15:14.460Z,0.05
2022-12-27T13:17:33.683Z,0.40
2022-12-27T13:19:49.783Z,0.10
2022-12-27T13:21:54.073Z,0.03
2022-12-27T13:24:14.391Z,0.65
2022-12-27T13:26:24.912Z,0.73
2022-12-27T13:28:42.529Z,1.15
2022-12-27T13:31:18.269Z,0.88
2022-12-27T13:33:33.858Z,0.22
2022-12-27T13:36:06.969Z,7.55
2022-12-27T13:38:27.186Z,0.28
2022-12-27T13:40:51.604Z,0.40
2022-12-27T13:42:56.026Z,2.80
2022-12-27T13:45:15.570Z,0.95
2022-12-27T13:47:50.543Z,0.22
2022-12-27T13:50:13.360Z,2.05
2022-12-27T13:52:37.868Z,2.45
2022-12-27T13:54:56.504Z,1.60
2022-12-27T13:57:32.179Z,0.35
2022-12-27T13:59:51.706Z,0.40
2022-12-27T14:01:59.470Z,2.97
2022-12-27T14:04:40.004Z,5.78
2022-12-27T14:06:58.521Z,0.40
2022-12-27T14:09:29.034Z,0.10
2022-12-27T14:11:42.558Z,0.13
2022-12-27T14:13:44.622Z,0.17
2022-12-27T14:15:52.058Z,2.53
2022-12-27T14:18:19.717Z,2.40
2022-12-27T14:20:52.155Z,1.10
2022-12-27T14:23:19.023Z,1.77
2022-12-27T14:25:32.672Z,1.48
2022-12-27T14:28:00.119Z,2.65
2022-12-27T14:30:23.191Z,1.50
2022-12-27T14:32:42.516Z,1.60
2022-12-27T14:34:54.557Z,3.95
2022-12-27T14:37:05.167Z,13.07
2022-12-27T14:39:27.802Z,1.08
2022-12-27T14:42:03.896Z,0.45
2022-12-27T14:44:29.061Z,3.85
2022-12-27T14:46:36.604Z,5.22
2022-12-27T14:49:16.666Z,1.75
2022-12-27T14:52:12.077Z,0.70
2022-12-27T14:54:13.579Z,2.58
2022-12-27T14:56:36.640Z,4.60
2022-12-27T14:59:05.720Z,3.83
2022-12-27T15:01:21.365Z,0.45
2022-12-27T15:03:32.380Z,3.10
2022-12-27T15:05:48.465Z,5.03
2022-12-27T15:08:16.727Z,0.65
2022-12-27T15:10:18.308Z,1.63
2022-12-27T15:12:35.175Z,0.57
2022-12-27T15:15:12.733Z,1.30
2022-12-27T15:17:22.722Z,0.85
2022-12-27T15:20:06.013Z,0.40
2022-12-27T15:22:25.318Z,2.65
2022-12-27T15:24:45.193Z,0.45
2022-12-27T15:26:54.363Z,0.32
2022-12-27T15:29:21.401Z,6.93
2022-12-27T15:31:37.969Z,36.92
2022-12-27T15:34:00.899Z,48.70
2022-12-27T15:36:17.831Z,26.10
2022-12-27T15:38:39.338Z,55.97
2022-12-27T15:40:45.423Z,18.30
2022-12-27T15:42:57.785Z,33.47
2022-12-27T15:45:24.627Z,24.73
2022-12-27T15:48:23.355Z,30.08
2022-12-27T15:50:27.789Z,16.33
2022-12-27T15:52:46.921Z,21.55
2022-12-27T15:55:26.816Z,18.00
2022-12-27T15:57:38.829Z,35.00
2022-12-27T15:59:45.867Z,31.25
2022-12-27T16:01:47.737Z,39.30
2022-12-27T16:03:50.827Z,27.58
2022-12-27T16:05:53.362Z,21.85
2022-12-27T16:08:01.346Z,23.05
2022-12-27T16:10:30.825Z,24.77
2022-12-27T16:12:39.298Z,17.52
2022-12-27T16:14:43.143Z,30.42
2022-12-27T16:16:54.829Z,16.13
2022-12-27T16:19:20.902Z,19.40
2022-12-27T16:21:37.716Z,21.83
2022-12-27T16:23:54.388Z,25.25
2022-12-27T16:26:10.595Z,14.23
2022-12-27T16:28:25.423Z,29.05
2022-12-27T16:30:49.566Z,37.88
2022-12-27T16:32:51.109Z,21.02
2022-12-27T16:34:55.791Z,38.20
2022-12-27T16:36:59.433Z,20.88
2022-12-27T16:39:24.445Z,29.55
2022-12-27T16:41:25.976Z,28.33
2022-12-27T16:43:45.038Z,43.83
2022-12-27T16:46:23.925Z,27.98
2022-12-27T16:49:14.929Z,24.20
2022-12-27T16:51:20.827Z,19.02
2022-12-27T16:53:34.624Z,36.60
2022-12-27T16:55:54.778Z,41.60
2022-12-27T16:58:21.396Z,27.55
2022-12-27T17:00:41.018Z,16.65
2022-12-27T17:02:46.962Z,23.83
2022-12-27T17:04:56.555Z,13.13
2022-12-27T17:06:58.169Z,20.45
2022-12-27T17:09:08.693Z,16.25
2022-12-27T17:11:29.590Z,19.33
2022-12-27T17:13:34.889Z,17.30
2022-12-27T17:15:49.738Z,21.92
2022-12-27T17:17:55.076Z,17.23
2022-12-27T17:20:03.170Z,38.17
2022-12-27T17:22:07.523Z,17.58
2022-12-27T17:24:12.766Z,21.08
2022-12-27T17:26:23.803Z,20.33
2022-12-27T17:28:31.685Z,25.00
2022-12-27T17:30:55.227Z,77.30
2022-12-27T17:33:16.940Z,43.58
2022-12-27T17:35:43.667Z,47.05
2022-12-27T17:38:04.120Z,39.47
2022-12-27T17:40:30.888Z,281.33
2022-12-27T17:43:04.411Z,546.08
2022-12-27T17:45:24.564Z,139.50
2022-12-27T17:47:39.414Z,320.27
2022-12-27T17:49:41.103Z,271.08
2022-12-27T17:52:10.944Z,525.20
2022-12-27T17:54:44.444Z,378.17
2022-12-27T17:57:17.084Z,503.85
2022-12-27T17:59:26.614Z,179.20
2022-12-27T18:01:31.892Z,141.27
2022-12-27T18:03:42.373Z,211.15
2022-12-27T18:05:45.636Z,95.25
2022-12-27T18:07:47.292Z,64.05
2022-12-27T18:09:52.583Z,86.68
2022-12-27T18:11:54.229Z,53.33
2022-12-27T18:13:58.949Z,46.78
2022-12-27T18:16:15.495Z,45.25
2022-12-27T18:18:23.644Z,31.27
2022-12-27T18:20:31.000Z,52.75
2022-12-27T18:22:32.565Z,56.47
2022-12-27T18:24:34.112Z,45.17
2022-12-27T18:26:40.979Z,74.93
2022-12-27T18:28:43.462Z,65.68
2022-12-27T18:31:03.453Z,61.15
2022-12-27T18:33:06.793Z,31.85
2022-12-27T18:35:11.995Z,57.75
2022-12-27T18:37:18.858Z,37.10
2022-12-27T18:39:36.738Z,138.38
2022-12-27T18:41:47.379Z,53.75
2022-12-27T18:43:52.284Z,43.60
2022-12-27T18:45:57.091Z,71.00
2022-12-27T18:48:01.797Z,39.28
2022-12-27T18:50:06.397Z,44.17
2022-12-27T18:52:19.839Z,31.05
2022-12-27T18:54:30.454Z,35.88
2022-12-27T18:56:34.502Z,74.05
2022-12-27T18:58:36.120Z,68.85
2022-12-27T19:01:02.984Z,32.05
2022-12-27T19:03:19.604Z,38.17
2022-12-27T19:05:21.118Z,94.88
2022-12-27T19:07:22.807Z,65.50
2022-12-27T19:09:28.934Z,48.60
2022-12-27T19:11:36.072Z,70.47
2022-12-27T19:14:04.997Z,40.60
2022-12-27T19:16:07.039Z,25.05
2022-12-27T19:18:38.533Z,86.70
2022-12-27T19:20:41.105Z,72.05
2022-12-27T19:22:55.793Z,93.90
2022-12-27T19:25:00.196Z,78.90
2022-12-27T19:27:16.575Z,211.10
2022-12-27T19:29:21.408Z,82.20
2022-12-27T19:31:23.115Z,78.38
2022-12-27T19:33:31.130Z,80.97
2022-12-27T19:35:32.940Z,62.88
2022-12-27T19:37:35.640Z,61.08
2022-12-27T19:39:38.826Z,89.45
2022-12-27T19:41:40.461Z,81.53
2022-12-27T19:43:44.955Z,124.53
2022-12-27T19:45:46.840Z,111.18
2022-12-27T19:47:50.754Z,116.20
2022-12-27T19:49:52.377Z,109.22
2022-12-27T19:51:56.718Z,103.68
2022-12-27T19:53:58.708Z,75.88
2022-12-27T19:56:01.979Z,108.30
2022-12-27T19:58:03.649Z,104.32
2022-12-27T20:00:13.729Z,83.88
2022-12-27T20:02:15.633Z,78.78
2022-12-27T20:04:19.687Z,83.80
2022-12-27T20:06:24.068Z,71.13
2022-12-27T20:08:32.711Z,66.47
2022-12-27T20:10:34.229Z,56.15
2022-12-27T20:12:35.875Z,63.25
2022-12-27T20:14:37.429Z,86.28
2022-12-27T20:16:39.036Z,119.70
2022-12-27T20:18:43.962Z,79.20
2022-12-27T20:20:47.699Z,59.63
2022-12-27T20:22:49.244Z,53.60
2022-12-27T20:24:51.345Z,41.03
2022-12-27T20:26:53.114Z,65.63
2022-12-27T20:28:54.616Z,63.13
2022-12-27T20:30:56.601Z,60.97
2022-12-27T20:32:58.198Z,62.92
2022-12-27T20:34:59.715Z,31.67
2022-12-27T20:37:02.745Z,59.67
2022-12-27T20:39:04.362Z,32.75
2022-12-27T20:41:10.668Z,38.38
2022-12-27T20:43:12.212Z,45.65
2022-12-27T20:45:13.786Z,38.78
2022-12-27T20:47:15.381Z,29.20
2022-12-27T20:49:16.940Z,58.00
2022-12-27T20:51:24.622Z,26.40
2022-12-27T20:53:27.942Z,29.77
2022-12-27T20:55:29.773Z,30.25
2022-12-27T20:57:31.383Z,40.03
2022-12-27T20:59:32.940Z,55.10
2022-12-27T21:01:34.580Z,57.97
2022-12-27T21:03:37.655Z,43.88
2022-12-27T21:05:39.212Z,31.02
2022-12-27T21:07:40.779Z,43.92
2022-12-27T21:09:42.368Z,41.00
2022-12-27T21:11:44.317Z,51.25
2022-12-27T21:13:46.938Z,28.77
2022-12-27T21:15:48.452Z,25.08
2022-12-27T21:17:49.998Z,26.55
2022-12-27T21:19:51.736Z,33.92
2022-12-27T21:21:53.317Z,37.72
2022-12-27T21:23:56.263Z,33.08
2022-12-27T21:26:08.933Z,32.10
2022-12-27T21:28:10.522Z,34.15
2022-12-27T21:30:13.572Z,37.80
2022-12-27T21:32:15.905Z,33.78
2022-12-27T21:34:17.465Z,28.77
2022-12-27T21:36:24.973Z,46.92
2022-12-27T21:38:27.445Z,87.50
2022-12-27T21:40:28.975Z,88.82
2022-12-27T21:42:30.463Z,89.53
2022-12-27T21:44:32.061Z,64.70
2022-12-27T21:46:37.495Z,55.72
2022-12-27T21:48:39.155Z,38.17
2022-12-27T21:50:40.812Z,29.88
2022-12-27T21:52:42.375Z,26.27
2022-12-27T21:54:43.878Z,31.95
2022-12-27T21:56:45.736Z,30.90
2022-12-27T21:58:47.397Z,30.33
2022-12-27T22:00:48.951Z,28.13
2022-12-27T22:02:50.618Z,32.22
2022-12-27T22:04:52.288Z,32.35
2022-12-27T22:06:53.935Z,33.30
2022-12-27T22:09:01.554Z,33.70
2022-12-27T22:11:03.172Z,37.63
2022-12-27T22:13:04.729Z,41.60
2022-12-27T22:15:06.608Z,96.80
2022-12-27T22:17:08.214Z,48.10
2022-12-27T22:19:11.525Z,35.30
2022-12-27T22:21:16.418Z,35.92
2022-12-27T22:23:18.429Z,34.67
2022-12-27T22:25:20.045Z,33.65
2022-12-27T22:27:21.611Z,33.22
2022-12-27T22:29:24.077Z,33.38
2022-12-27T22:31:31.075Z,29.85
2022-12-27T22:33:33.062Z,26.42
2022-12-27T22:35:34.722Z,29.80
2022-12-27T22:37:36.352Z,30.27
2022-12-27T22:39:37.888Z,29.27
2022-12-27T22:41:39.511Z,44.38
2022-12-27T22:43:43.157Z,58.00
2022-12-27T22:45:50.328Z,83.13
2022-12-27T22:47:55.059Z,77.20
2022-12-27T22:49:56.657Z,56.70
2022-12-27T22:51:58.296Z,36.50
2022-12-27T22:54:00.987Z,40.67
2022-12-27T22:56:02.579Z,29.83
2022-12-27T22:58:04.092Z,30.30
2022-12-27T23:00:12.500Z,38.53
2022-12-27T23:02:14.340Z,34.10
2022-12-27T23:04:16.074Z,30.70
2022-12-27T23:06:17.983Z,27.85
2022-12-27T23:08:19.503Z,31.02
2022-12-27T23:10:21.102Z,26.42
2022-12-27T23:12:22.668Z,28.08
2022-12-27T23:14:24.289Z,27.38
2022-12-27T23:16:26.233Z,30.67
2022-12-27T23:18:28.989Z,34.35
2022-12-27T23:20:34.015Z,27.92
2022-12-27T23:22:35.564Z,38.10
2022-12-27T23:24:37.138Z,26.65
2022-12-27T23:26:40.027Z,28.85
2022-12-27T23:28:43.791Z,36.70
2022-12-27T23:30:45.328Z,25.20
2022-12-27T23:32:46.818Z,21.23
2022-12-27T23:34:48.409Z,24.10
2022-12-27T23:36:49.990Z,24.88
2022-12-27T23:38:51.648Z,21.30
2022-12-27T23:40:58.090Z,23.52
2022-12-27T23:43:25.747Z,30.80
2022-12-27T23:45:21.182Z,27.27
2022-12-27T23:47:22.821Z,20.70
2022-12-27T23:49:24.345Z,23.42
2022-12-27T23:51:26.520Z,27.08
2022-12-27T23:53:28.168Z,21.13
2022-12-27T23:55:29.719Z,22.40
2022-12-27T23:57:31.255Z,20.23
2022-12-27T23:59:32.775Z,25.65
